Seymour, Missouri
Current Conditions -  °F | °C
As of 10:52 AM on Tuesday 27 Jan 2015 (Local Time) from KSGF Reporting Station
Clear Clear  
Wind Chill: 47°   Ceiling: Unl
Heat Index: 47°   Visibility: 10mi
Dew Point: 34°   Wind: 0mph
Humidity: 61%   Direction: NA
Pressure: 30.17"   Gusts: NA
Location:  37.15°N, 92.77°W
Report Text: KSGF 271652Z 00000KT 10SM CLR 08/01 A3017 RMK AO2 SLP219 T00830011
Loading
Personal Weather Stations






























Interactive Weather Map New forecast layout! Learn more

10-Day Weather Forecast

Advertisements
Track Severe Weather on mobile